createdAt,value
2019-05-06T00:03:11.488Z,5.94
2019-05-06T00:08:15.011Z,6.07
2019-05-06T00:13:18.479Z,5.81
2019-05-06T00:18:24.465Z,5.92
2019-05-06T00:23:32.353Z,5.83
2019-05-06T00:28:44.639Z,6.15
2019-05-06T00:33:47.324Z,5.72
2019-05-06T00:38:53.936Z,5.92
2019-05-06T00:43:57.258Z,6.10
2019-05-06T00:49:00.107Z,6.08
2019-05-06T00:54:10.046Z,6.05
2019-05-06T00:59:14.359Z,5.79
2019-05-06T01:04:16.933Z,5.69
2019-05-06T01:09:21.197Z,5.47
2019-05-06T01:14:30.566Z,5.48
2019-05-06T01:19:34.418Z,5.41
2019-05-06T01:24:37.241Z,5.34
2019-05-06T01:29:40.549Z,4.92
2019-05-06T01:34:44.650Z,5.25
2019-05-06T01:40:03.948Z,5.22
2019-05-06T01:45:07.777Z,5.11
2019-05-06T01:50:11.404Z,5.26
2019-05-06T01:55:15.422Z,5.39
2019-05-06T02:00:18.957Z,5.44
2019-05-06T02:05:24.127Z,5.35
2019-05-06T02:10:27.290Z,5.39
2019-05-06T02:15:30.536Z,5.38
2019-05-06T02:20:35.084Z,5.36
2019-05-06T02:25:42.075Z,5.55
2019-05-06T02:30:54.706Z,5.70
2019-05-06T02:36:14.914Z,5.80
2019-05-06T02:41:17.306Z,5.59
2019-05-06T02:46:20.213Z,5.77
2019-05-06T02:51:26.694Z,5.49
2019-05-06T02:56:29.597Z,5.24
2019-05-06T03:01:34.022Z,5.53
2019-05-06T03:06:37.790Z,5.35
2019-05-06T03:11:43.619Z,5.52
2019-05-06T03:16:45.477Z,5.49
2019-05-06T03:22:13.322Z,5.46
2019-05-06T03:27:16.089Z,5.47
2019-05-06T03:32:24.796Z,5.46
2019-05-06T03:37:24.363Z,5.58
2019-05-06T03:42:27.220Z,5.56
2019-05-06T03:47:36.957Z,5.69
2019-05-06T03:52:39.478Z,5.67
2019-05-06T03:57:43.108Z,5.32
2019-05-06T04:02:46.252Z,5.80
2019-05-06T04:07:52.775Z,5.71
2019-05-06T04:12:56.709Z,5.67
2019-05-06T04:18:03.886Z,5.62
2019-05-06T04:23:18.568Z,5.80
2019-05-06T04:28:24.720Z,5.86
2019-05-06T04:33:27.945Z,5.97
2019-05-06T04:38:33.519Z,6.27
2019-05-06T04:43:35.881Z,6.38
2019-05-06T04:48:38.896Z,6.33
2019-05-06T04:53:44.112Z,6.43
2019-05-06T04:58:48.146Z,6.45
2019-05-06T05:03:53.874Z,6.41
2019-05-06T05:08:56.129Z,6.48
2019-05-06T05:14:26.049Z,6.57
2019-05-06T05:19:32.781Z,6.38
2019-05-06T05:24:37.067Z,6.50
2019-05-06T05:29:42.434Z,6.59
2019-05-06T05:34:46.368Z,6.47
2019-05-06T05:39:49.175Z,6.67
2019-05-06T05:44:53.819Z,6.78
2019-05-06T05:50:26.435Z,7.19
2019-05-06T05:55:29.589Z,7.26
2019-05-06T06:00:34.130Z,7.25
2019-05-06T06:05:37.671Z,6.90
2019-05-06T06:11:12.296Z,7.10
2019-05-06T06:16:34.941Z,7.40
2019-05-06T06:21:42.827Z,7.47
2019-05-06T06:26:46.626Z,7.45
2019-05-06T06:32:09.834Z,7.42
2019-05-06T06:37:42.617Z,7.66
2019-05-06T06:42:49.858Z,8.05
2019-05-06T06:47:52.915Z,8.33
2019-05-06T06:52:55.837Z,8.34
2019-05-06T06:58:25.261Z,8.50
2019-05-06T07:03:35.231Z,8.63
2019-05-06T07:08:38.003Z,8.63
2019-05-06T07:13:49.130Z,8.67
2019-05-06T07:18:52.614Z,8.48
2019-05-06T07:23:55.880Z,8.28
2019-05-06T07:29:03.265Z,8.61
2019-05-06T07:34:04.660Z,8.88
2019-05-06T07:39:07.698Z,9.19
2019-05-06T07:44:36.647Z,9.20
2019-05-06T07:49:39.544Z,9.45
2019-05-06T07:54:42.681Z,9.21
2019-05-06T07:59:45.766Z,9.19
2019-05-06T08:04:49.342Z,9.20
2019-05-06T08:09:53.038Z,8.91
2019-05-06T08:14:56.133Z,8.48
2019-05-06T08:19:59.319Z,8.92
2019-05-06T08:25:03.376Z,9.60
2019-05-06T08:30:08.353Z,9.78
2019-05-06T08:35:13.377Z,9.82
2019-05-06T08:40:16.836Z,10.46
2019-05-06T08:45:21.950Z,10.19
2019-05-06T08:50:34.128Z,10.50
2019-05-06T08:55:38.586Z,10.63
2019-05-06T09:00:49.518Z,10.27
2019-05-06T09:05:55.051Z,10.30
2019-05-06T09:10:58.253Z,10.40
2019-05-06T09:16:02.475Z,9.46
2019-05-06T09:21:06.168Z,9.42
2019-05-06T09:26:12.993Z,9.91
2019-05-06T09:31:42.729Z,10.21
2019-05-06T09:36:51.843Z,9.98
2019-05-06T09:41:57.777Z,10.13
2019-05-06T09:46:57.648Z,10.26
2019-05-06T09:52:02.483Z,10.61
2019-05-06T09:57:09.709Z,10.52
2019-05-06T10:02:12.831Z,10.77
2019-05-06T10:07:15.679Z,11.05
2019-05-06T10:12:18.920Z,10.54
2019-05-06T10:17:22.176Z,10.99
2019-05-06T10:22:25.621Z,10.90
2019-05-06T10:27:28.888Z,10.89
2019-05-06T10:32:58.022Z,10.95
2019-05-06T10:38:23.006Z,11.07
2019-05-06T10:43:35.722Z,11.23
2019-05-06T10:48:38.617Z,11.66
2019-05-06T10:53:42.456Z,12.07
2019-05-06T10:58:45.558Z,11.47
2019-05-06T11:03:48.705Z,11.31
2019-05-06T11:08:52.509Z,10.94
2019-05-06T11:13:57.490Z,10.06
2019-05-06T11:19:02.527Z,10.22
2019-05-06T11:24:06.273Z,10.17
2019-05-06T11:29:15.424Z,10.92
2019-05-06T11:34:42.060Z,11.21
2019-05-06T11:39:47.419Z,11.97
2019-05-06T11:44:52.902Z,11.59
2019-05-06T11:49:57.187Z,11.28
2019-05-06T11:55:02.179Z,11.93
2019-05-06T12:00:07.125Z,12.88
2019-05-06T12:05:10.260Z,12.91
2019-05-06T12:10:13.611Z,13.03
2019-05-06T12:15:16.741Z,12.87
2019-05-06T12:20:22.103Z,12.94
2019-05-06T12:25:24.845Z,12.67
2019-05-06T12:30:28.423Z,12.67
2019-05-06T12:35:32.226Z,11.94
2019-05-06T12:40:35.931Z,12.13
2019-05-06T12:45:43.042Z,11.94
2019-05-06T12:50:45.573Z,12.89
2019-05-06T12:55:48.365Z,12.25
2019-05-06T13:00:54.189Z,11.82
2019-05-06T13:05:57.131Z,12.30
2019-05-06T13:11:02.446Z,12.32
2019-05-06T13:16:05.985Z,12.40
2019-05-06T13:21:09.538Z,12.70
2019-05-06T13:26:13.002Z,12.78
2019-05-06T13:31:21.339Z,13.41
2019-05-06T13:36:22.631Z,12.94
2019-05-06T13:41:25.744Z,12.73
2019-05-06T13:46:33.511Z,13.73
2019-05-06T13:51:37.287Z,14.12
2019-05-06T13:56:42.552Z,13.98
2019-05-06T14:02:06.669Z,13.97
2019-05-06T14:07:07.506Z,14.80
2019-05-06T14:12:10.361Z,13.77
2019-05-06T14:17:13.909Z,13.58
2019-05-06T14:22:17.299Z,14.05
2019-05-06T14:27:22.157Z,13.69
2019-05-06T14:32:25.739Z,13.18
2019-05-06T14:37:28.974Z,12.72
2019-05-06T14:42:33.020Z,11.82
2019-05-06T14:47:38.081Z,11.62
2019-05-06T14:52:42.642Z,11.86
2019-05-06T14:57:46.373Z,13.11
2019-05-06T15:02:49.572Z,12.57
2019-05-06T15:07:53.059Z,12.57
2019-05-06T15:12:56.264Z,12.23
2019-05-06T15:17:59.039Z,13.32
2019-05-06T15:23:04.367Z,13.34
2019-05-06T15:28:06.954Z,13.23
2019-05-06T15:33:13.608Z,13.47
2019-05-06T15:38:23.601Z,13.76
2019-05-06T15:43:26.610Z,13.94
2019-05-06T15:48:29.840Z,14.15
2019-05-06T15:53:33.330Z,13.77
2019-05-06T15:58:37.175Z,13.83
2019-05-06T16:03:43.145Z,12.87
2019-05-06T16:08:46.059Z,13.07
2019-05-06T16:13:48.959Z,14.15
2019-05-06T16:18:51.963Z,14.17
2019-05-06T16:24:02.450Z,12.52
2019-05-06T16:29:06.251Z,11.90
2019-05-06T16:34:12.411Z,11.53
2019-05-06T16:39:15.372Z,12.11
2019-05-06T16:44:18.969Z,12.83
2019-05-06T16:49:23.068Z,13.21
2019-05-06T16:54:27.062Z,13.20
2019-05-06T16:59:30.271Z,13.44
2019-05-06T17:04:58.327Z,12.92
2019-05-06T17:10:03.452Z,12.84
2019-05-06T17:15:07.602Z,12.11
2019-05-06T17:20:12.216Z,12.61
2019-05-06T17:25:15.081Z,12.50
2019-05-06T17:30:44.019Z,12.04
2019-05-06T17:35:46.813Z,12.11
2019-05-06T17:40:52.430Z,11.38
2019-05-06T17:46:02.583Z,10.88
2019-05-06T17:51:16.852Z,10.65
2019-05-06T17:56:31.507Z,10.29
2019-05-06T18:01:38.099Z,10.09
2019-05-06T18:06:46.127Z,10.34
2019-05-06T18:11:58.586Z,10.06
2019-05-06T18:16:59.902Z,9.83
2019-05-06T18:22:04.385Z,9.88
2019-05-06T18:27:07.991Z,9.54
2019-05-06T18:32:12.671Z,9.40
2019-05-06T18:37:15.427Z,9.15
2019-05-06T18:42:20.410Z,9.31
2019-05-06T18:47:24.406Z,9.20
2019-05-06T18:52:28.160Z,9.13
2019-05-06T18:57:32.804Z,8.93
2019-05-06T19:02:37.077Z,9.05
2019-05-06T19:07:40.643Z,8.82
2019-05-06T19:12:45.813Z,8.74
2019-05-06T19:17:49.376Z,8.66
2019-05-06T19:22:53.575Z,8.65
2019-05-06T19:27:57.397Z,8.47
2019-05-06T19:33:02.944Z,8.67
2019-05-06T19:38:06.621Z,8.37
2019-05-06T19:43:09.689Z,8.32
2019-05-06T19:48:13.548Z,8.20
2019-05-06T19:53:16.535Z,8.13
2019-05-06T19:58:19.618Z,8.22
2019-05-06T20:03:23.187Z,8.11
2019-05-06T20:08:34.002Z,8.19
2019-05-06T20:13:37.339Z,7.99
2019-05-06T20:18:43.377Z,7.87
2019-05-06T20:23:46.105Z,7.81
2019-05-06T20:28:49.924Z,7.88
2019-05-06T20:33:53.154Z,7.70
2019-05-06T20:38:56.042Z,7.43
2019-05-06T20:43:58.929Z,7.47
2019-05-06T20:49:02.773Z,7.61
2019-05-06T20:54:07.515Z,7.58
2019-05-06T20:59:13.811Z,7.52
2019-05-06T21:04:17.499Z,7.44
2019-05-06T21:09:23.118Z,7.31
2019-05-06T21:14:25.770Z,7.32
2019-05-06T21:19:29.194Z,7.27
2019-05-06T21:24:33.286Z,6.98
2019-05-06T21:29:36.680Z,7.07
2019-05-06T21:34:40.348Z,7.02
2019-05-06T21:39:44.894Z,7.07
2019-05-06T21:44:48.118Z,7.13
2019-05-06T21:49:52.865Z,7.08
2019-05-06T21:54:55.382Z,7.01
2019-05-06T21:59:58.748Z,7.00
2019-05-06T22:05:02.744Z,6.89
2019-05-06T22:10:06.279Z,6.83
2019-05-06T22:15:11.746Z,6.67
2019-05-06T22:20:14.463Z,6.65
2019-05-06T22:25:21.961Z,6.67
2019-05-06T22:30:24.673Z,6.55
2019-05-06T22:35:27.883Z,6.71
2019-05-06T22:40:32.759Z,6.38
2019-05-06T22:45:35.998Z,6.30
2019-05-06T22:50:38.841Z,6.26
2019-05-06T22:55:42.828Z,6.31
2019-05-06T23:00:49.843Z,6.31
2019-05-06T23:05:53.387Z,6.40
2019-05-06T23:10:56.932Z,6.22
2019-05-06T23:16:01.999Z,6.27
2019-05-06T23:21:04.857Z,5.97
2019-05-06T23:26:19.079Z,6.05
2019-05-06T23:31:24.454Z,6.01
2019-05-06T23:36:32.520Z,5.86
2019-05-06T23:42:12.386Z,5.76
2019-05-06T23:47:53.143Z,6.27
2019-05-06T23:53:32.658Z,7.00
2019-05-06T23:58:36.127Z,7.32
